Time;durP1;ratioP1;P1;durP2;ratioP2;P2;SDS_P1;SDS_P2;PMS_P1;PMS_P2;Temp;Humidity;BMP_temperature;BMP_pressure;BME280_temperature;BME280_humidity;BME280_pressure;Samples;Min_cycle;Max_cycle;Signal;HPM_P1;HPM_P2
2022/08/27 00:00:09;;;;;;;2.80;0.70;;;;;;;;;;5011371;28;20038;-81
2022/08/27 00:02:35;;;;;;;3.08;0.85;;;;;;;;;;5011916;28;20408;-81
2022/08/27 00:05:01;;;;;;;2.83;0.85;;;;;;;;;;4995243;28;20038;-81
2022/08/27 00:07:27;;;;;;;3.85;0.70;;;;;;;;;;4995643;28;20038;-81
2022/08/27 00:09:52;;;;;;;3.55;1.05;;;;;;;;;;4979373;28;20054;-81
2022/08/27 00:12:18;;;;;;;1.80;0.52;;;;;;;;;;4995394;28;20038;-80
2022/08/27 00:14:43;;;;;;;2.38;0.80;;;;;;;;;;4995033;28;20111;-81
2022/08/27 00:17:09;;;;;;;3.28;0.75;;;;;;;;;;4995361;28;20081;-81
2022/08/27 00:19:35;;;;;;;2.13;0.75;;;;;;;;;;5011104;28;20116;-80
2022/08/27 00:22:01;;;;;;;2.22;0.98;;;;;;;;;;4994855;28;20033;-81
2022/08/27 00:24:26;;;;;;;3.35;1.15;;;;;;;;;;5011467;28;20392;-80
2022/08/27 00:26:52;;;;;;;3.33;0.90;;;;;;;;;;4979059;28;20180;-81
2022/08/27 00:29:18;;;;;;;2.42;0.70;;;;;;;;;;4978794;28;20065;-81
2022/08/27 00:31:44;;;;;;;3.65;0.70;;;;;;;;;;4994439;28;20038;-80
2022/08/27 00:34:10;;;;;;;4.60;1.42;;;;;;;;;;4995016;28;20030;-81
2022/08/27 00:36:35;;;;;;;3.38;0.70;;;;;;;;;;4978891;28;20040;-81
2022/08/27 00:39:01;;;;;;;4.97;0.90;;;;;;;;;;4978363;28;20034;-81
2022/08/27 00:41:26;;;;;;;2.40;0.50;;;;;;;;;;4978448;28;20049;-81
2022/08/27 00:43:56;;;;;;;2.05;0.75;;;;;;;;;;4978579;28;20417;-81
2022/08/27 00:46:36;;;;;;;2.22;0.57;;;;;;;;;;4994047;28;20080;-81
2022/08/27 00:49:25;;;;;;;2.95;0.68;;;;;;;;;;5011250;28;20065;-81
2022/08/27 00:51:54;;;;;;;2.45;0.70;;;;;;;;;;4980337;28;20053;-81
2022/08/27 00:54:20;;;;;;;2.05;0.70;;;;;;;;;;4978499;28;20053;-80
2022/08/27 00:56:45;;;;;;;1.63;0.60;;;;;;;;;;4978320;28;20124;-81
2022/08/27 00:59:13;;;;;;;1.83;0.75;;;;;;;;;;4962200;28;20064;-81
2022/08/27 01:02:17;;;;;;;2.55;0.93;;;;;;;;;;4978347;28;20042;-80
2022/08/27 01:04:25;;;;;;;2.67;1.02;;;;;;;;;;4997439;28;20072;-80
2022/08/27 01:06:51;;;;;;;1.60;0.50;;;;;;;;;;4994340;28;20412;-80
2022/08/27 01:09:16;;;;;;;2.25;0.68;;;;;;;;;;4978308;28;20103;-81
2022/08/27 01:11:43;;;;;;;2.22;0.57;;;;;;;;;;4994179;28;20555;-81
2022/08/27 01:14:08;;;;;;;2.53;1.00;;;;;;;;;;4994274;28;20412;-80
2022/08/27 01:16:38;;;;;;;1.83;0.80;;;;;;;;;;5026886;28;20034;-80
2022/08/27 01:19:25;;;;;;;2.28;0.60;;;;;;;;;;4994643;28;20056;-81
2022/08/27 01:22:16;;;;;;;2.40;1.00;;;;;;;;;;4977750;28;20037;-81
2022/08/27 01:24:46;;;;;;;2.00;0.57;;;;;;;;;;5029812;28;20057;-81
2022/08/27 01:27:14;;;;;;;1.52;0.50;;;;;;;;;;4978117;28;20041;-81
2022/08/27 01:29:40;;;;;;;1.95;0.73;;;;;;;;;;4993637;28;20456;-81
2022/08/27 01:32:14;;;;;;;1.95;0.45;;;;;;;;;;4981750;28;20133;-81
2022/08/27 01:34:40;;;;;;;1.83;0.77;;;;;;;;;;4984550;28;20037;-81
2022/08/27 01:37:05;;;;;;;1.85;0.73;;;;;;;;;;5000388;28;20727;-82
2022/08/27 01:39:35;;;;;;;3.38;0.70;;;;;;;;;;5000773;28;20029;-81
2022/08/27 01:42:06;;;;;;;1.40;0.55;;;;;;;;;;4997098;28;20421;-81
2022/08/27 01:44:41;;;;;;;1.98;0.70;;;;;;;;;;4997068;28;20023;-81
2022/08/27 01:47:07;;;;;;;3.95;0.73;;;;;;;;;;4991945;28;20034;-81
2022/08/27 01:49:32;;;;;;;3.03;0.80;;;;;;;;;;5000778;28;20038;-81
2022/08/27 01:51:58;;;;;;;2.08;0.52;;;;;;;;;;5000142;28;20058;-81
2022/08/27 01:54:23;;;;;;;2.85;0.73;;;;;;;;;;5000624;28;20120;-80
2022/08/27 01:56:49;;;;;;;2.97;0.60;;;;;;;;;;5000326;28;20049;-80
2022/08/27 01:59:14;;;;;;;1.40;0.50;;;;;;;;;;4999714;28;20451;-81
2022/08/27 02:01:39;;;;;;;2.10;0.80;;;;;;;;;;5000239;28;20389;-81
2022/08/27 02:04:05;;;;;;;3.55;0.73;;;;;;;;;;5000252;28;20447;-81
2022/08/27 02:06:30;;;;;;;1.75;0.50;;;;;;;;;;5000257;28;20455;-80
2022/08/27 02:08:56;;;;;;;3.13;0.60;;;;;;;;;;4983951;28;20404;-81
2022/08/27 02:11:21;;;;;;;1.85;0.80;;;;;;;;;;5016552;28;20038;-81
2022/08/27 02:13:47;;;;;;;2.40;0.80;;;;;;;;;;5016137;28;20034;-80
2022/08/27 02:16:13;;;;;;;1.23;0.50;;;;;;;;;;5016446;28;20435;-81
2022/08/27 02:18:39;;;;;;;1.75;0.57;;;;;;;;;;5000253;28;20041;-80
2022/08/27 02:21:04;;;;;;;1.80;0.70;;;;;;;;;;5000189;28;20393;-81
2022/08/27 02:23:30;;;;;;;1.77;0.60;;;;;;;;;;5016502;28;20459;-81
2022/08/27 02:25:55;;;;;;;1.48;0.50;;;;;;;;;;4984364;28;20053;-80
2022/08/27 02:28:21;;;;;;;1.20;0.50;;;;;;;;;;5032572;28;20034;-81
2022/08/27 02:30:46;;;;;;;1.83;0.50;;;;;;;;;;4999574;28;20041;-80
2022/08/27 02:33:12;;;;;;;2.33;0.80;;;;;;;;;;5016429;28;20737;-81
2022/08/27 02:35:39;;;;;;;1.73;0.60;;;;;;;;;;4984149;28;20073;-80
2022/08/27 02:38:05;;;;;;;2.65;0.90;;;;;;;;;;4984355;28;20045;-81
2022/08/27 02:40:30;;;;;;;2.03;0.50;;;;;;;;;;5016251;28;20033;-80
2022/08/27 02:42:56;;;;;;;1.98;0.50;;;;;;;;;;4998212;28;20501;-81
2022/08/27 02:45:21;;;;;;;2.90;0.77;;;;;;;;;;4996931;28;20041;-81
2022/08/27 02:47:47;;;;;;;4.53;0.68;;;;;;;;;;4996797;28;20081;-81
2022/08/27 02:50:13;;;;;;;1.60;0.65;;;;;;;;;;4964384;28;20456;-81
2022/08/27 02:52:38;;;;;;;1.05;0.30;;;;;;;;;;4963910;28;20049;-80
2022/08/27 02:55:04;;;;;;;1.25;0.60;;;;;;;;;;4996889;28;20041;-81
2022/08/27 02:57:30;;;;;;;2.38;0.57;;;;;;;;;;4980252;28;20467;-81
2022/08/27 02:59:55;;;;;;;2.28;0.82;;;;;;;;;;4996818;28;20077;-81
2022/08/27 03:02:21;;;;;;;3.45;0.85;;;;;;;;;;4980136;28;20088;-80
2022/08/27 03:04:46;;;;;;;3.33;0.63;;;;;;;;;;5012751;28;20041;-81
2022/08/27 03:07:12;;;;;;;1.25;0.60;;;;;;;;;;4996513;28;20033;-81
2022/08/27 03:09:38;;;;;;;2.88;0.88;;;;;;;;;;4980546;28;20579;-81
2022/08/27 03:12:03;;;;;;;1.90;0.50;;;;;;;;;;4979992;28;20065;-80
2022/08/27 03:14:30;;;;;;;2.28;0.70;;;;;;;;;;4980069;28;20029;-81
2022/08/27 03:18:16;;;;;;;2.58;1.00;;;;;;;;;;4996720;28;20040;-80
2022/08/27 03:19:40;;;;;;;3.03;0.90;;;;;;;;;;4999122;28;20045;-81
2022/08/27 03:22:06;;;;;;;3.17;0.90;;;;;;;;;;5012373;28;20045;-80
2022/08/27 03:24:32;;;;;;;1.30;0.52;;;;;;;;;;5012148;28;20389;-81
2022/08/27 03:26:58;;;;;;;1.88;0.43;;;;;;;;;;4996687;28;20045;-80
2022/08/27 03:29:24;;;;;;;2.92;0.80;;;;;;;;;;4979707;28;20030;-80
2022/08/27 03:31:49;;;;;;;1.65;0.63;;;;;;;;;;4996230;28;20046;-80
2022/08/27 03:34:15;;;;;;;2.90;0.60;;;;;;;;;;5012165;28;20060;-80
2022/08/27 03:36:40;;;;;;;2.40;0.98;;;;;;;;;;4980075;28;20036;-81
2022/08/27 03:39:05;;;;;;;2.50;0.80;;;;;;;;;;4995457;28;20052;-81
2022/08/27 03:41:31;;;;;;;2.45;0.70;;;;;;;;;;4992556;28;20405;-81
2022/08/27 03:43:56;;;;;;;3.38;0.77;;;;;;;;;;5008628;28;20069;-81
2022/08/27 03:46:22;;;;;;;1.40;0.50;;;;;;;;;;5013183;28;20408;-81
2022/08/27 03:48:47;;;;;;;2.20;0.60;;;;;;;;;;5012219;28;20434;-81
2022/08/27 03:51:14;;;;;;;1.90;0.80;;;;;;;;;;4979483;28;20046;-81
2022/08/27 03:53:40;;;;;;;2.33;0.60;;;;;;;;;;5011756;28;20046;-81
2022/08/27 03:56:07;;;;;;;2.83;0.60;;;;;;;;;;5011337;28;20034;-81
2022/08/27 03:58:33;;;;;;;2.15;0.70;;;;;;;;;;4995361;28;20049;-81
2022/08/27 04:00:59;;;;;;;3.58;0.95;;;;;;;;;;4978942;28;20033;-81
2022/08/27 04:03:25;;;;;;;3.35;1.17;;;;;;;;;;4995421;28;20080;-81
2022/08/27 04:05:54;;;;;;;1.75;0.73;;;;;;;;;;4995151;28;20046;-80
2022/08/27 04:08:20;;;;;;;1.15;0.68;;;;;;;;;;4995069;28;20029;-80
2022/08/27 04:10:46;;;;;;;4.13;0.85;;;;;;;;;;5028336;28;20041;-80
2022/08/27 04:13:14;;;;;;;3.35;0.85;;;;;;;;;;5011403;28;20034;-80
2022/08/27 04:15:44;;;;;;;2.95;1.08;;;;;;;;;;5012267;28;20088;-80
2022/08/27 04:18:11;;;;;;;2.22;1.00;;;;;;;;;;5011697;28;20037;-80
2022/08/27 04:20:36;;;;;;;2.50;0.73;;;;;;;;;;4979158;28;20037;-80
2022/08/27 04:23:03;;;;;;;1.90;0.70;;;;;;;;;;4994766;28;20417;-81
2022/08/27 04:25:28;;;;;;;2.22;0.93;;;;;;;;;;4978880;28;20036;-80
2022/08/27 04:27:53;;;;;;;2.72;0.75;;;;;;;;;;4995037;28;20476;-80
2022/08/27 04:30:19;;;;;;;2.35;0.70;;;;;;;;;;4978204;28;20451;-80
2022/08/27 04:32:44;;;;;;;3.15;0.70;;;;;;;;;;4978813;28;20037;-80
2022/08/27 04:35:10;;;;;;;2.15;0.55;;;;;;;;;;4995269;28;20041;-80
2022/08/27 04:37:36;;;;;;;3.00;0.77;;;;;;;;;;4978270;28;20042;-80
2022/08/27 04:40:02;;;;;;;2.58;0.70;;;;;;;;;;4994959;28;20477;-80
2022/08/27 04:42:27;;;;;;;3.22;0.95;;;;;;;;;;4991564;28;20054;-80
2022/08/27 04:44:53;;;;;;;3.05;0.80;;;;;;;;;;4991503;28;20162;-80
2022/08/27 04:47:19;;;;;;;2.17;0.90;;;;;;;;;;4987646;28;20038;-80
2022/08/27 04:49:44;;;;;;;2.08;0.77;;;;;;;;;;4978700;28;20037;-80
2022/08/27 04:52:10;;;;;;;2.95;1.00;;;;;;;;;;4994016;28;20050;-80
2022/08/27 04:54:35;;;;;;;2.53;0.80;;;;;;;;;;4994763;28;20053;-80
2022/08/27 04:57:02;;;;;;;3.13;1.05;;;;;;;;;;4995139;28;20088;-80
2022/08/27 04:59:27;;;;;;;2.30;0.80;;;;;;;;;;4962140;28;20033;-80
2022/08/27 05:01:53;;;;;;;3.47;0.77;;;;;;;;;;4978245;28;20045;-80
2022/08/27 05:04:18;;;;;;;2.55;0.90;;;;;;;;;;4994828;28;20560;-80
2022/08/27 05:06:44;;;;;;;3.60;0.95;;;;;;;;;;4994148;28;20064;-80
2022/08/27 05:09:14;;;;;;;4.07;1.05;;;;;;;;;;4978447;28;20045;-80
2022/08/27 05:11:40;;;;;;;1.70;0.80;;;;;;;;;;4994855;28;20034;-80
2022/08/27 05:14:07;;;;;;;1.48;0.70;;;;;;;;;;4995136;28;20060;-80
2022/08/27 05:16:35;;;;;;;3.55;1.00;;;;;;;;;;4994571;28;20109;-80
2022/08/27 05:19:01;;;;;;;2.35;0.90;;;;;;;;;;4994852;28;20440;-80
2022/08/27 05:21:29;;;;;;;2.58;0.85;;;;;;;;;;4993875;28;20126;-80
2022/08/27 05:23:55;;;;;;;5.72;0.90;;;;;;;;;;4978120;28;20046;-80
2022/08/27 05:26:21;;;;;;;3.00;0.93;;;;;;;;;;4994093;28;20034;-79
2022/08/27 05:28:50;;;;;;;2.25;0.90;;;;;;;;;;4993970;28;20033;-80
2022/08/27 05:31:18;;;;;;;3.88;1.10;;;;;;;;;;4975854;28;20474;-79
2022/08/27 05:33:44;;;;;;;3.38;0.88;;;;;;;;;;4992220;28;20050;-80
2022/08/27 05:36:18;;;;;;;3.92;0.90;;;;;;;;;;4976930;28;20430;-79
2022/08/27 05:38:44;;;;;;;3.72;1.20;;;;;;;;;;4978799;28;20046;-79
2022/08/27 05:41:14;;;;;;;4.65;1.80;;;;;;;;;;5007838;28;20137;-80
2022/08/27 05:43:40;;;;;;;4.75;0.77;;;;;;;;;;4991829;28;20417;-79
2022/08/27 05:46:07;;;;;;;4.22;1.17;;;;;;;;;;5010306;28;20110;-79
2022/08/27 05:48:33;;;;;;;4.63;1.02;;;;;;;;;;4961866;28;20042;-79
2022/08/27 05:51:06;;;;;;;3.63;1.48;;;;;;;;;;4977676;28;20036;-79
2022/08/27 05:53:32;;;;;;;9.70;1.17;;;;;;;;;;4977949;28;20100;-79
2022/08/27 05:55:57;;;;;;;5.68;1.52;;;;;;;;;;5010507;28;20046;-79
2022/08/27 06:01:07;;;;;;;9.75;1.92;;;;;;;;;;5014209;28;20511;-78
2022/08/27 06:03:33;;;;;;;3.08;1.27;;;;;;;;;;4994530;28;20053;-79
2022/08/27 06:06:00;;;;;;;6.40;2.35;;;;;;;;;;5004274;28;20030;-78
2022/08/27 06:08:26;;;;;;;7.68;2.88;;;;;;;;;;4990261;28;20497;-78
2022/08/27 06:10:51;;;;;;;9.57;4.22;;;;;;;;;;5023295;28;20109;-78
2022/08/27 06:13:17;;;;;;;9.82;3.90;;;;;;;;;;4990428;28;20042;-77
2022/08/27 06:15:43;;;;;;;10.00;4.15;;;;;;;;;;4990785;28;20117;-78
2022/08/27 06:18:08;;;;;;;11.95;4.13;;;;;;;;;;5011152;28;20037;-78
2022/08/27 06:20:34;;;;;;;9.07;3.97;;;;;;;;;;5013372;28;20049;-78
2022/08/27 06:22:59;;;;;;;9.57;4.13;;;;;;;;;;4997307;28;20073;-78
2022/08/27 06:25:24;;;;;;;10.15;3.78;;;;;;;;;;4997378;28;20515;-78
2022/08/27 06:27:50;;;;;;;6.30;2.92;;;;;;;;;;4981229;28;20034;-78
2022/08/27 06:30:15;;;;;;;6.80;3.20;;;;;;;;;;5013496;28;20041;-78
2022/08/27 06:32:41;;;;;;;7.55;3.03;;;;;;;;;;4994855;28;20389;-78
2022/08/27 06:35:06;;;;;;;7.90;2.70;;;;;;;;;;5012891;28;20033;-78
2022/08/27 06:37:32;;;;;;;9.50;2.88;;;;;;;;;;4994269;28;20030;-77
2022/08/27 06:39:58;;;;;;;7.93;2.50;;;;;;;;;;4994288;28;20095;-78
2022/08/27 06:42:23;;;;;;;12.00;2.35;;;;;;;;;;5005938;28;20068;-79
2022/08/27 06:44:49;;;;;;;5.00;1.88;;;;;;;;;;5024770;28;20415;-78
2022/08/27 06:47:14;;;;;;;6.95;2.03;;;;;;;;;;4979648;28;20519;-78
2022/08/27 06:49:40;;;;;;;9.48;2.08;;;;;;;;;;5013002;28;20042;-78
2022/08/27 06:52:05;;;;;;;3.95;1.83;;;;;;;;;;4996314;28;20041;-78
2022/08/27 06:54:31;;;;;;;4.63;1.15;;;;;;;;;;5045375;28;20041;-78
2022/08/27 06:56:59;;;;;;;4.80;1.83;;;;;;;;;;4980870;28;20378;-80
2022/08/27 06:59:25;;;;;;;4.47;1.60;;;;;;;;;;5028663;28;20038;-79
2022/08/27 07:01:50;;;;;;;4.03;1.60;;;;;;;;;;4986873;28;20036;-80
2022/08/27 07:04:21;;;;;;;5.03;1.40;;;;;;;;;;4979892;28;20116;-80
2022/08/27 07:06:47;;;;;;;4.68;1.50;;;;;;;;;;5029645;28;20065;-80
2022/08/27 07:09:13;;;;;;;6.80;1.40;;;;;;;;;;4980207;28;20053;-81
2022/08/27 07:11:38;;;;;;;4.53;1.00;;;;;;;;;;5029086;28;20042;-80
2022/08/27 07:14:05;;;;;;;5.97;1.45;;;;;;;;;;5012520;28;20042;-80
2022/08/27 07:16:30;;;;;;;4.60;1.15;;;;;;;;;;4980040;28;20496;-80
2022/08/27 07:18:58;;;;;;;3.50;1.33;;;;;;;;;;4979662;28;20061;-80
2022/08/27 07:21:23;;;;;;;3.55;1.45;;;;;;;;;;4996107;28;20052;-80
2022/08/27 07:23:50;;;;;;;3.90;1.58;;;;;;;;;;4968400;28;20432;-80
2022/08/27 07:26:16;;;;;;;4.43;1.20;;;;;;;;;;4996219;28;20032;-80
2022/08/27 07:28:41;;;;;;;3.22;1.70;;;;;;;;;;4962511;28;20037;-80
2022/08/27 07:31:08;;;;;;;4.20;1.20;;;;;;;;;;4978053;28;20068;-81
2022/08/27 07:33:35;;;;;;;4.43;1.08;;;;;;;;;;4976492;28;20049;-80
2022/08/27 07:36:01;;;;;;;3.78;1.45;;;;;;;;;;4960841;28;20038;-81
2022/08/27 07:38:26;;;;;;;5.53;1.23;;;;;;;;;;4957837;28;20045;-81
2022/08/27 07:40:52;;;;;;;3.20;1.40;;;;;;;;;;5028620;28;20032;-81
2022/08/27 07:46:02;;;;;;;3.47;1.27;;;;;;;;;;5011573;28;20030;-81
2022/08/27 07:48:28;;;;;;;4.45;1.33;;;;;;;;;;4963280;28;20038;-82
2022/08/27 07:50:54;;;;;;;4.72;1.42;;;;;;;;;;4963347;28;20038;-81
2022/08/27 07:53:20;;;;;;;3.72;1.10;;;;;;;;;;4963246;28;20129;-82
2022/08/27 07:55:45;;;;;;;3.67;1.50;;;;;;;;;;4960024;28;20497;-81
2022/08/27 07:58:12;;;;;;;4.20;1.23;;;;;;;;;;5008525;28;20034;-81
2022/08/27 08:00:40;;;;;;;2.92;1.02;;;;;;;;;;4994610;28;20057;-81
2022/08/27 08:03:05;;;;;;;3.95;1.02;;;;;;;;;;4998431;28;20037;-81
2022/08/27 08:05:31;;;;;;;4.00;1.83;;;;;;;;;;5014742;28;20134;-80
2022/08/27 08:07:56;;;;;;;4.70;1.27;;;;;;;;;;5014650;28;20392;-80
2022/08/27 08:10:22;;;;;;;5.05;1.40;;;;;;;;;;5014609;28;20025;-81
2022/08/27 08:12:47;;;;;;;6.22;1.33;;;;;;;;;;4998307;28;20037;-80
2022/08/27 08:15:13;;;;;;;4.60;1.48;;;;;;;;;;5002157;28;20042;-81
2022/08/27 08:17:39;;;;;;;5.03;1.60;;;;;;;;;;5011753;28;20040;-80
2022/08/27 08:20:05;;;;;;;4.35;1.10;;;;;;;;;;5027796;28;20264;-80
2022/08/27 08:22:30;;;;;;;4.88;1.58;;;;;;;;;;5011454;28;20034;-80
2022/08/27 08:24:56;;;;;;;4.22;1.50;;;;;;;;;;4994935;28;20030;-80
2022/08/27 08:27:21;;;;;;;6.70;1.52;;;;;;;;;;4994781;28;20049;-80
2022/08/27 08:29:47;;;;;;;4.82;0.85;;;;;;;;;;4994015;28;20025;-81
2022/08/27 08:32:13;;;;;;;4.32;1.17;;;;;;;;;;5011027;28;20137;-80
2022/08/27 08:34:38;;;;;;;4.93;1.65;;;;;;;;;;5027174;28;20045;-80
2022/08/27 08:37:04;;;;;;;6.05;1.73;;;;;;;;;;5010836;28;20084;-80
2022/08/27 08:39:30;;;;;;;5.55;1.58;;;;;;;;;;5027913;28;20399;-81
2022/08/27 08:41:57;;;;;;;6.05;2.00;;;;;;;;;;5025952;28;20042;-80
2022/08/27 08:44:32;;;;;;;3.85;1.30;;;;;;;;;;4994031;28;20037;-80
2022/08/27 08:47:23;;;;;;;3.67;1.30;;;;;;;;;;5011065;28;20480;-80
2022/08/27 08:50:19;;;;;;;8.93;2.00;;;;;;;;;;5010857;28;20048;-82
2022/08/27 08:52:50;;;;;;;7.53;1.70;;;;;;;;;;4967564;28;20060;-80
2022/08/27 08:55:34;;;;;;;4.43;1.90;;;;;;;;;;5014397;28;20037;-81
2022/08/27 08:58:29;;;;;;;7.75;2.05;;;;;;;;;;4982921;28;20084;-81
2022/08/27 09:00:59;;;;;;;7.15;2.42;;;;;;;;;;5015779;28;20039;-81
2022/08/27 09:03:24;;;;;;;4.03;1.88;;;;;;;;;;4980951;28;20042;-81
2022/08/27 09:06:04;;;;;;;5.82;2.03;;;;;;;;;;4980147;28;20029;-82
2022/08/27 09:08:39;;;;;;;6.88;2.03;;;;;;;;;;4981988;28;20034;-81
2022/08/27 09:11:26;;;;;;;6.47;1.92;;;;;;;;;;4983472;28;20038;-82
2022/08/27 09:13:56;;;;;;;8.35;1.90;;;;;;;;;;4999910;28;20034;-81
2022/08/27 09:16:21;;;;;;;6.60;1.52;;;;;;;;;;4982114;28;20446;-81
2022/08/27 09:18:48;;;;;;;9.20;2.25;;;;;;;;;;4998838;28;20034;-81
2022/08/27 09:21:32;;;;;;;9.05;2.13;;;;;;;;;;4982165;28;20078;-81
2022/08/27 09:24:06;;;;;;;8.48;2.40;;;;;;;;;;5013914;28;20045;-81
2022/08/27 09:26:36;;;;;;;7.82;2.55;;;;;;;;;;4984561;28;20512;-81
2022/08/27 09:29:17;;;;;;;7.95;2.40;;;;;;;;;;4987327;28;20034;-80
2022/08/27 09:31:45;;;;;;;13.02;2.83;;;;;;;;;;4998063;28;20030;-81
2022/08/27 09:34:11;;;;;;;10.98;2.75;;;;;;;;;;4996899;28;20034;-82
2022/08/27 09:37:03;;;;;;;13.07;2.75;;;;;;;;;;4996172;28;20386;-81
2022/08/27 09:39:47;;;;;;;27.10;3.22;;;;;;;;;;5011405;28;20089;-83
2022/08/27 09:42:26;;;;;;;12.82;2.88;;;;;;;;;;5012215;28;20038;-81
2022/08/27 09:44:52;;;;;;;11.25;2.42;;;;;;;;;;5007596;28;20041;-82
2022/08/27 09:47:17;;;;;;;9.60;2.95;;;;;;;;;;4967570;28;20034;-84
2022/08/27 09:49:43;;;;;;;9.43;2.15;;;;;;;;;;5000330;28;20033;-82
2022/08/27 09:52:08;;;;;;;10.93;3.20;;;;;;;;;;4983971;28;20053;-80
2022/08/27 09:54:43;;;;;;;12.23;2.40;;;;;;;;;;4988283;28;20049;-82
2022/08/27 09:57:11;;;;;;;7.47;2.30;;;;;;;;;;4988046;28;20140;-83
2022/08/27 09:59:40;;;;;;;7.40;2.28;;;;;;;;;;4968385;28;20040;-83
2022/08/27 10:02:33;;;;;;;6.18;1.90;;;;;;;;;;4973078;28;20084;-82
2022/08/27 10:05:01;;;;;;;8.50;2.35;;;;;;;;;;5029546;28;20073;-83
2022/08/27 10:07:30;;;;;;;7.35;2.22;;;;;;;;;;4997575;28;20026;-83
2022/08/27 10:10:12;;;;;;;5.65;1.70;;;;;;;;;;5014044;28;20041;-83
2022/08/27 10:13:03;;;;;;;8.73;2.22;;;;;;;;;;4962510;28;20038;-84
2022/08/27 10:15:39;;;;;;;8.80;2.40;;;;;;;;;;4983631;28;20064;-85
2022/08/27 10:18:16;;;;;;;6.78;2.10;;;;;;;;;;4981536;28;20145;-84
2022/08/27 10:20:51;;;;;;;5.57;1.52;;;;;;;;;;4994427;28;20563;-85
2022/08/27 10:23:38;;;;;;;6.35;2.10;;;;;;;;;;5011840;28;20065;-84
2022/08/27 10:26:14;;;;;;;;;;;;;;;;;;4994521;28;20807;-85
2022/08/27 10:28:51;;;;;;;15.77;2.53;;;;;;;;;;4993552;28;20340;-85
2022/08/27 10:31:20;;;;;;;6.10;2.55;;;;;;;;;;5017185;28;20467;-85
2022/08/27 10:34:14;;;;;;;6.55;2.70;;;;;;;;;;4997680;28;20037;-84
2022/08/27 10:36:49;;;;;;;6.40;2.13;;;;;;;;;;4997350;28;20062;-84
2022/08/27 10:39:32;;;;;;;7.07;1.80;;;;;;;;;;4997319;28;20065;-85
2022/08/27 10:42:19;;;;;;;4.97;2.13;;;;;;;;;;4989514;28;20451;-86
2022/08/27 10:45:07;;;;;;;9.43;2.85;;;;;;;;;;4997193;28;20031;-85
2022/08/27 10:47:58;;;;;;;7.57;2.78;;;;;;;;;;5013309;28;20056;-83
2022/08/27 10:50:32;;;;;;;7.85;3.55;;;;;;;;;;4980862;28;20311;-83
2022/08/27 10:53:04;;;;;;;11.30;3.75;;;;;;;;;;4980158;28;20064;-84
2022/08/27 10:55:39;;;;;;;9.70;4.07;;;;;;;;;;4964200;28;20042;-84
2022/08/27 10:58:15;;;;;;;7.57;2.83;;;;;;;;;;4997171;28;20046;-84
2022/08/27 11:00:59;;;;;;;7.53;2.72;;;;;;;;;;4998862;28;20045;-84
2022/08/27 11:03:40;;;;;;;5.00;2.40;;;;;;;;;;4980973;28;20034;-84
2022/08/27 11:06:46;;;;;;;7.80;2.17;;;;;;;;;;5013454;28;20034;-84
2022/08/27 11:09:27;;;;;;;6.13;1.85;;;;;;;;;;4979836;28;20038;-86
2022/08/27 11:11:55;;;;;;;6.57;2.10;;;;;;;;;;4995891;28;20038;-86
2022/08/27 11:14:26;;;;;;;7.40;1.90;;;;;;;;;;4979408;28;20285;-86
2022/08/27 11:16:55;;;;;;;4.57;1.60;;;;;;;;;;4996877;28;20054;-88
2022/08/27 11:19:37;;;;;;;6.78;1.60;;;;;;;;;;4981215;28;20443;-83
2022/08/27 11:22:05;;;;;;;;;;;;;;;;;;5013317;28;20132;-89
2022/08/27 11:24:48;;;;;;;3.53;1.60;;;;;;;;;;5022672;28;19967;-85
2022/08/27 11:27:21;;;;;;;6.32;1.50;;;;;;;;;;4982154;28;20096;-84
2022/08/27 11:30:19;;;;;;;5.13;1.90;;;;;;;;;;4996693;28;20442;-83
2022/08/27 11:32:57;;;;;;;8.93;1.83;;;;;;;;;;4996179;28;20038;-87
2022/08/27 11:35:43;;;;;;;5.78;2.20;;;;;;;;;;4989927;28;20038;-84
2022/08/27 11:38:42;;;;;;;5.82;2.13;;;;;;;;;;4986156;28;20049;-85
2022/08/27 11:41:30;;;;;;;5.40;2.08;;;;;;;;;;4992446;28;20108;-85
2022/08/27 11:43:58;;;;;;;5.28;1.67;;;;;;;;;;5012103;28;20052;-86
2022/08/27 11:46:25;;;;;;;5.70;1.65;;;;;;;;;;5012300;28;20034;-84
2022/08/27 11:48:58;;;;;;;4.95;1.85;;;;;;;;;;4993404;28;20030;-85
2022/08/27 11:51:36;;;;;;;3.30;1.48;;;;;;;;;;4979161;28;20057;-84
2022/08/27 11:54:05;;;;;;;5.63;1.65;;;;;;;;;;4961579;28;20077;-84
2022/08/27 11:56:34;;;;;;;3.15;1.90;;;;;;;;;;4979468;28;20038;-84
2022/08/27 11:59:21;;;;;;;4.78;1.60;;;;;;;;;;5012259;28;20034;-86
2022/08/27 12:01:48;;;;;;;3.45;1.42;;;;;;;;;;5023404;28;20037;-84
2022/08/27 12:04:29;;;;;;;4.07;1.50;;;;;;;;;;5015210;28;20048;-84
2022/08/27 12:07:08;;;;;;;5.38;1.50;;;;;;;;;;5031372;28;20033;-84
2022/08/27 12:09:55;;;;;;;4.30;1.45;;;;;;;;;;5031774;28;20049;-85
2022/08/27 12:12:35;;;;;;;4.13;1.55;;;;;;;;;;5031496;28;20029;-86
2022/08/27 12:15:05;;;;;;;3.80;1.58;;;;;;;;;;5017869;28;20030;-90
2022/08/27 12:17:43;;;;;;;2.80;1.20;;;;;;;;;;4991484;28;20035;-85
2022/08/27 12:20:26;;;;;;;7.45;1.73;;;;;;;;;;5008212;28;20057;-84
2022/08/27 12:25:54;;;;;;;4.70;1.30;;;;;;;;;;5011093;28;20030;-84
2022/08/27 12:28:22;;;;;;;3.28;1.58;;;;;;;;;;4992392;28;20072;-84
2022/08/27 12:30:49;;;;;;;5.70;1.20;;;;;;;;;;5007523;28;20453;-84
2022/08/27 12:33:29;;;;;;;4.53;1.27;;;;;;;;;;5008408;28;20160;-84
2022/08/27 12:35:55;;;;;;;4.93;1.63;;;;;;;;;;5001881;28;20049;-85
2022/08/27 12:38:33;;;;;;;3.85;1.45;;;;;;;;;;4978981;28;20033;-85
2022/08/27 12:41:02;;;;;;;3.88;1.00;;;;;;;;;;5028070;28;20044;-86
2022/08/27 12:43:32;;;;;;;5.35;1.38;;;;;;;;;;4980346;28;20113;-85
2022/08/27 12:46:00;;;;;;;2.42;0.95;;;;;;;;;;4995692;28;20137;-86
2022/08/27 12:48:31;;;;;;;3.58;1.70;;;;;;;;;;5005014;28;20041;-86
2022/08/27 12:51:03;;;;;;;6.77;1.17;;;;;;;;;;4975198;28;20076;-84
2022/08/27 12:53:41;;;;;;;3.92;1.70;;;;;;;;;;4975608;28;20108;-86
2022/08/27 12:56:31;;;;;;;6.10;1.40;;;;;;;;;;5007464;28;20065;-85
2022/08/27 12:59:37;;;;;;;3.63;1.40;;;;;;;;;;4976822;28;20508;-84
2022/08/27 13:02:09;;;;;;;2.58;1.15;;;;;;;;;;4961307;28;20030;-84
2022/08/27 13:04:36;;;;;;;2.35;1.13;;;;;;;;;;4958923;28;20613;-85
2022/08/27 13:07:01;;;;;;;4.55;1.40;;;;;;;;;;4959293;28;20030;-84
2022/08/27 13:09:32;;;;;;;4.25;1.27;;;;;;;;;;4974597;28;20042;-84
2022/08/27 13:12:04;;;;;;;4.43;1.23;;;;;;;;;;5006908;28;20034;-85
2022/08/27 13:14:42;;;;;;;4.57;1.30;;;;;;;;;;5026126;28;20415;-85
2022/08/27 13:17:10;;;;;;;2.95;0.88;;;;;;;;;;4979051;28;20121;-85
2022/08/27 13:19:42;;;;;;;4.38;1.20;;;;;;;;;;4978212;28;20568;-83
2022/08/27 13:22:08;;;;;;;;;;;;;;;;;;4978786;28;20034;-85
2022/08/27 13:24:36;;;;;;;3.53;0.98;;;;;;;;;;5027219;28;19932;-85
2022/08/27 13:27:04;;;;;;;2.42;1.13;;;;;;;;;;4977285;28;20046;-84
2022/08/27 13:29:30;;;;;;;3.40;1.00;;;;;;;;;;4978143;28;20080;-84
2022/08/27 13:31:57;;;;;;;4.35;1.33;;;;;;;;;;4977627;28;20041;-84
2022/08/27 13:34:24;;;;;;;5.80;0.88;;;;;;;;;;4977643;28;20030;-84
2022/08/27 13:37:01;;;;;;;3.03;1.38;;;;;;;;;;4992886;28;20519;-84
2022/08/27 13:39:34;;;;;;;4.00;1.00;;;;;;;;;;4998792;28;20416;-83
2022/08/27 13:42:03;;;;;;;2.92;1.27;;;;;;;;;;5010227;28;20076;-85
2022/08/27 13:44:38;;;;;;;3.30;1.02;;;;;;;;;;4962980;28;20049;-85
2022/08/27 13:47:13;;;;;;;4.68;0.80;;;;;;;;;;4981322;28;20501;-85
2022/08/27 13:49:39;;;;;;;4.50;1.13;;;;;;;;;;4975178;28;20034;-84
2022/08/27 13:52:14;;;;;;;2.13;0.95;;;;;;;;;;5006174;28;20059;-84
2022/08/27 13:54:45;;;;;;;4.85;1.05;;;;;;;;;;4974784;28;20038;-84
2022/08/27 13:57:12;;;;;;;4.47;1.33;;;;;;;;;;4974453;28;20034;-85
2022/08/27 13:59:39;;;;;;;2.75;1.15;;;;;;;;;;5007893;28;20096;-85
2022/08/27 14:02:10;;;;;;;2.30;1.30;;;;;;;;;;5017903;28;20129;-85
2022/08/27 14:04:47;;;;;;;3.78;1.60;;;;;;;;;;5006904;28;20381;-85
2022/08/27 14:07:19;;;;;;;3.22;1.33;;;;;;;;;;4989942;28;20038;-85
2022/08/27 14:09:51;;;;;;;1.83;0.70;;;;;;;;;;4990011;28;20079;-85
2022/08/27 14:12:26;;;;;;;3.50;1.00;;;;;;;;;;5006777;28;20073;-85
2022/08/27 14:14:55;;;;;;;3.03;1.02;;;;;;;;;;5003277;28;20046;-84
2022/08/27 14:17:44;;;;;;;3.55;1.27;;;;;;;;;;5009785;28;20034;-86
2022/08/27 14:20:12;;;;;;;4.03;1.10;;;;;;;;;;4997143;28;20038;-86
2022/08/27 14:22:39;;;;;;;1.73;0.98;;;;;;;;;;4962059;28;20041;-85
2022/08/27 14:25:05;;;;;;;3.33;0.88;;;;;;;;;;4977908;28;20129;-84
2022/08/27 14:27:30;;;;;;;3.20;1.13;;;;;;;;;;4977036;28;20121;-84
2022/08/27 14:29:56;;;;;;;4.95;1.65;;;;;;;;;;4976916;28;20030;-84
2022/08/27 14:32:22;;;;;;;6.38;2.13;;;;;;;;;;4992826;28;20088;-86
2022/08/27 14:34:48;;;;;;;4.88;1.77;;;;;;;;;;4993763;28;20045;-86
2022/08/27 14:37:14;;;;;;;5.07;2.00;;;;;;;;;;4978170;28;20037;-85
2022/08/27 14:39:40;;;;;;;6.18;1.80;;;;;;;;;;4992118;28;20034;-85
2022/08/27 14:42:06;;;;;;;3.42;1.45;;;;;;;;;;4992271;28;20561;-85
2022/08/27 14:44:32;;;;;;;3.92;1.40;;;;;;;;;;4981317;28;20034;-86
2022/08/27 14:46:59;;;;;;;6.32;1.40;;;;;;;;;;4997893;28;20063;-86
2022/08/27 14:49:36;;;;;;;5.18;1.58;;;;;;;;;;4976774;28;20039;-84
2022/08/27 14:52:02;;;;;;;4.03;1.75;;;;;;;;;;5013124;28;20060;-84
2022/08/27 14:54:28;;;;;;;5.28;1.38;;;;;;;;;;5013445;28;20136;-85
2022/08/27 14:56:55;;;;;;;4.43;1.48;;;;;;;;;;5046407;28;20129;-84
2022/08/27 14:59:21;;;;;;;5.93;1.17;;;;;;;;;;5046304;28;20084;-84
2022/08/27 15:01:46;;;;;;;3.88;1.45;;;;;;;;;;5012820;28;20039;-84
2022/08/27 15:04:12;;;;;;;4.70;1.75;;;;;;;;;;4980552;28;20516;-84
2022/08/27 15:06:38;;;;;;;3.75;1.05;;;;;;;;;;4996692;28;20500;-84